Buoy 17652

sailwx.info

Track history (hours):
 
Tides and Currents Weather Stations Pressure Air Temp Water Temp Dewpoint Dewpoint Depression Visibility Wind Speed Wind Dir Waves Ship Positions

Drifting buoy 17652

Last reported at 2016-May-30 03:00 UTC. Time now 2016-May-30 05:03 UTC.
Position S 39°60' E 011°32'.

Barometer 1009.0 mb
Water temperature 10.3 ° C

Date/timePositionNaut miles runAvg speedWind from/ knotsBaromVisibWave heightAir tempDewpointWater temp
2016-May-30 03:00S 39°60' E 011°32'1 0.8 1009.0 10.3
2016-May-30 02:00S 39°59' E 011°31'0 0.1 1009.2 10.4
2016-May-30 01:00S 39°59' E 011°31'0 0.1 1009.3 10.4
2016-May-29 23:00S 39°59' E 011°31'1 0.7 1009.5 10.4
2016-May-29 22:00S 39°59' E 011°32'0 0.1 1009.5 10.4
2016-May-29 21:00S 39°59' E 011°32'1 0.6 1009.6 10.5
2016-May-29 20:00S 39°59' E 011°32'2 1.0 1009.8 10.5
2016-May-29 18:00S 40°01' E 011°31'0 0.0 1009.5 10.5
2016-May-29 17:00S 40°01' E 011°31'0 0.3 1009.1 10.5
2016-May-29 16:00S 40°01' E 011°31'2 2.1 1008.9 10.5
2016-May-29 15:00S 40°02' E 011°28'0 0.0 1008.8 10.5
2016-May-29 14:00S 40°02' E 011°28'2 0.4 1008.6 10.5
2016-May-29 07:00S 40°01' E 011°26'1 0.3 1007.4 10.6
2016-May-29 05:00S 40°00' E 011°25'0 0.3 1007.5 10.6
2016-May-29 04:00S 40°00' E 011°25'1 0.3 1007.0 10.7
2016-May-29 00:00S 40°02' E 011°25'1 1.0 1007.6 10.7
2016-May-28 23:00S 40°02' E 011°24'0 0.2 1007.8 10.8
2016-May-28 22:00S 40°02' E 011°24'2 0.8 1007.9 10.8
2016-May-28 20:00S 40°03' E 011°22'1 1.5 1008.0 10.9
2016-May-28 19:00S 40°02' E 011°20'2 0.8 1008.4 10.9
2016-May-28 17:00S 40°02' E 011°18'1 0.5 1008.1 11.0
2016-May-28 15:00S 40°01' E 011°17'1 1.3 1009.1 11.0
2016-May-28 14:00S 40°01' E 011°15'3 0.6 1009.4 11.0
2016-May-28 09:00S 39°58' E 011°13'0 0.0 1015.3 11.1
2016-May-28 08:00S 39°58' E 011°13'0 0.4 1015.2 11.1
2016-May-28 07:00S 39°58' E 011°14'2 0.4 1015.8 11.1
2016-May-28 03:00S 39°60' E 011°13'0 0.0 1017.5 10.9
2016-May-28 02:00S 39°60' E 011°13'1 1.1 1018.2 10.8
2016-May-28 01:00S 40°00' E 011°11'0 0.0 1018.7 10.8
2016-May-28 00:00S 40°00' E 011°11'1 0.7 1019.3 10.7
2016-May-27 22:00S 40°01' E 011°10'1 0.6 1019.8 10.7
2016-May-27 20:00S 40°00' E 011°08'2 0.4 1020.5 10.7
2016-May-27 16:00S 39°59' E 011°07'0 0.0 1019.9 10.9
2016-May-27 15:00S 39°59' E 011°07'3 0.4 1019.7 10.9
2016-May-27 06:00S 40°02' E 011°06'1 0.5 1018.7 10.8
2016-May-27 04:00S 40°03' E 011°05'1 0.6 1017.7 10.7
2016-May-27 03:00S 40°02' E 011°05'1 0.7 1017.8 10.7
2016-May-27 02:00S 40°03' E 011°04'0 0.2 1018.0 10.7
2016-May-27 01:00S 40°03' E 011°04'0 0.0 1017.7 10.7
2016-May-27 00:00S 40°03' E 011°04'1 0.7 1019.0 10.7
2016-May-26 23:00S 40°02' E 011°04'0 0.3 1018.8 10.7
2016-May-26 22:00S 40°03' E 011°04'0 0.1 1018.6 10.7
2016-May-26 21:00S 40°03' E 011°04'0 0.1 1018.9 10.7
2016-May-26 19:00S 40°03' E 011°04'1 0.3 1018.9 10.7
2016-May-26 17:00S 40°03' E 011°04'1 1.0 1018.7 10.7
2016-May-26 16:00S 40°04' E 011°03'0 0.0 1018.5 10.7
2016-May-26 14:00S 40°04' E 011°03'2 1.9 1017.8 10.6
2016-May-26 13:00S 40°06' E 011°03'2 0.4 1017.6 10.6
2016-May-26 07:00S 40°07' E 010°60'4 0.7 1016.3 11.6
2016-May-26 02:00S 40°09' E 010°57'2 1.6 1017.7 12.3
2016-May-26 01:00S 40°10' E 010°55'0 0.0 1018.0 12.3
2016-May-26 00:00S 40°10' E 010°55'3 1.3 1018.7 12.4
2016-May-25 22:00S 40°12' E 010°52'1 0.7 1019.7 12.6
2016-May-25 21:00S 40°12' E 010°51'2 1.5 1020.0 12.7
2016-May-25 20:00S 40°13' E 010°50'0 0.0 1020.3 13.0
2016-May-25 19:00S 40°13' E 010°50'3 1.3 1020.5 13.1
2016-May-25 17:00S 40°15' E 010°48'2 2.1 1020.1 13.6
2016-May-25 16:00S 40°17' E 010°48'1 0.7 1019.8 13.8
2016-May-25 15:00S 40°18' E 010°47'16 1.6 1019.8 13.9
2016-May-25 05:00S 40°31' E 010°37'0 0.3 1019.7 15.2
2016-May-25 04:00S 40°31' E 010°37'2 1.6 1019.7 15.3
2016-May-25 03:00S 40°33' E 010°36'0 0.0 1019.7 15.3
2016-May-25 02:00S 40°33' E 010°36'7 1.4 1020.0 15.4
2016-May-24 21:00S 40°39' E 010°32'2 2.2 1022.0 15.7
2016-May-24 20:00S 40°40' E 010°30'4 1.3 1022.1 15.8
2016-May-24 17:00S 40°43' E 010°26'1 1.2 1022.3 15.9
2016-May-24 16:00S 40°44' E 010°25'3 1.0 1022.4 15.9
2016-May-24 13:00S 40°45' E 010°21'2 0.6 1023.6 15.6
2016-May-24 09:00S 40°45' E 010°18'3 1.3 1026.0 15.2
2016-May-24 07:00S 40°47' E 010°16'0 0.4 1026.3 15.3
2016-May-24 06:00S 40°47' E 010°15'1 0.5 1026.3 15.3
2016-May-24 05:00S 40°48' E 010°15'1 0.6 1026.3 15.3
2016-May-24 04:00S 40°48' E 010°14'1 0.4 1026.1 15.3
2016-May-24 02:00S 40°49' E 010°14'1 1.1 1027.5 15.2
2016-May-24 01:00S 40°50' E 010°13'2 0.8 1026.8 15.3
2016-May-23 22:00S 40°52' E 010°11'1 0.6 1026.6 15.5
2016-May-23 20:00S 40°53' E 010°10'2 1.9 1025.8 15.6
2016-May-23 19:00S 40°54' E 010°08'0 0.3 1025.0 15.6
2016-May-23 18:00S 40°53' E 010°08'1 0.7 1024.4 15.7
2016-May-23 16:00S 40°54' E 010°06'1 0.8 1022.9 15.7
2016-May-23 15:00S 40°54' E 010°05'1 0.5 1021.5 15.8
2016-May-23 14:00S 40°54' E 010°05'0 0.0 1020.4 15.8
2016-May-23 13:00S 40°54' E 010°05'2 0.4 1019.6 15.8
2016-May-23 09:00S 40°55' E 010°04'0 0.0 1017.8 15.9
2016-May-23 08:00S 40°55' E 010°04'3 0.9 1016.4 15.9
2016-May-23 05:00S 40°58' E 010°03'1 0.9 1012.8 16.2
2016-May-23 04:00S 40°58' E 010°02'1 1.5 1012.1 16.2
2016-May-23 03:00S 40°59' E 010°00'0 0.1 1011.3 16.2
2016-May-23 02:00S 40°59' E 010°00'2 1.7 1011.5 16.3
2016-May-23 01:00S 40°59' E 009°58'2 0.8 1011.3 16.3
2016-May-22 22:00S 40°58' E 009°55'1 0.6 1011.1 16.3
2016-May-22 20:00S 40°58' E 009°54'3 0.6 1010.9 16.3
2016-May-22 15:00S 40°57' E 009°50'0 0.0 1008.8 16.4
2016-May-22 13:00S 40°57' E 009°50'5 0.9 1008.6 16.4
2016-May-22 07:00S 40°59' E 009°43'1 1.1 1012.5 14.8
2016-May-22 06:00S 40°58' E 009°43'2 0.8 1013.4 14.9
2016-May-22 04:00S 40°57' E 009°41'2 1.2 1014.9 15.8
2016-May-22 02:00S 40°56' E 009°38'0 0.0 1017.9 16.3
2016-May-22 01:00S 40°56' E 009°38'1 1.2 1019.5 16.4
2016-May-22 00:00S 40°56' E 009°36'1 0.4 1020.0 16.4
2016-May-21 21:00S 40°55' E 009°36'0 0.5 1022.9 16.3
2016-May-21 20:00S 40°55' E 009°36'0 0.1 1023.3 16.3
2016-May-21 17:00S 40°55' E 009°36'0 0.2 1023.8 16.3
2016-May-21 16:00S 40°55' E 009°36'0 0.2 1023.4 16.3
2016-May-21 13:00S 40°54' E 009°36'6 1.1 1023.5 16.6
2016-May-21 08:00S 40°50' E 009°32'1 1.2 1023.2 16.7
2016-May-21 07:00S 40°49' E 009°31'1 1.4 1022.4 16.7
2016-May-21 06:00S 40°48' E 009°30'2 0.9 1021.7 16.8
2016-May-21 04:00S 40°46' E 009°29'2 0.6 1019.8 16.8
2016-May-21 01:00S 40°44' E 009°30'2 1.2 1017.6 16.8
2016-May-20 23:00S 40°43' E 009°27'0 0.1 1015.5 16.8
2016-May-20 21:00S 40°43' E 009°27'7 1.7 1012.9 16.8
2016-May-20 17:00S 40°42' E 009°18'3 2.9 1010.8 16.7
2016-May-20 16:00S 40°40' E 009°15'0 0.0 1010.7 16.6
2016-May-20 15:00S 40°40' E 009°15'4 3.6 1011.3 16.6
2016-May-20 14:00S 40°39' E 009°11'11 2.2 1011.7 16.6
2016-May-20 09:00S 40°32' E 008°59'4 1.9 1017.1 17.1
2016-May-20 07:00S 40°30' E 008°55'2 1.8 1017.8 17.5
2016-May-20 06:00S 40°28' E 008°53'0 0.0 1018.2 17.5
2016-May-20 05:00S 40°28' E 008°53'1 0.8 1018.8 17.6
2016-May-20 04:00S 40°28' E 008°53'3 3.3 1019.3 17.6
2016-May-20 03:00S 40°26' E 008°49'   1020.1 17.6
Track history (hours):
 
Tides and Currents Weather Stations Pressure Air Temp Water Temp Dewpoint Dewpoint Depression Visibility Wind Speed Wind Dir Waves Ship Positions

Drifting buoy 17652

Last reported at 2016-May-30 03:00 UTC. Time now 2016-May-30 05:03 UTC.
Position S 39°60' E 011°32'.

Barometer 1009.0 mb
Water temperature 10.3 ° C

Date/timePositionNaut miles runAvg speedWind from/ knotsBaromVisibWave heightAir tempDewpointWater temp
2016-May-30 03:00S 39°60' E 011°32'1 0.8 1009.0 10.3
2016-May-30 02:00S 39°59' E 011°31'0 0.1 1009.2 10.4
2016-May-30 01:00S 39°59' E 011°31'0 0.1 1009.3 10.4
2016-May-29 23:00S 39°59' E 011°31'1 0.7 1009.5 10.4
2016-May-29 22:00S 39°59' E 011°32'0 0.1 1009.5 10.4
2016-May-29 21:00S 39°59' E 011°32'1 0.6 1009.6 10.5
2016-May-29 20:00S 39°59' E 011°32'2 1.0 1009.8 10.5
2016-May-29 18:00S 40°01' E 011°31'0 0.0 1009.5 10.5
2016-May-29 17:00S 40°01' E 011°31'0 0.3 1009.1 10.5
2016-May-29 16:00S 40°01' E 011°31'2 2.1 1008.9 10.5
2016-May-29 15:00S 40°02' E 011°28'0 0.0 1008.8 10.5
2016-May-29 14:00S 40°02' E 011°28'2 0.4 1008.6 10.5
2016-May-29 07:00S 40°01' E 011°26'1 0.3 1007.4 10.6
2016-May-29 05:00S 40°00' E 011°25'0 0.3 1007.5 10.6
2016-May-29 04:00S 40°00' E 011°25'1 0.3 1007.0 10.7
2016-May-29 00:00S 40°02' E 011°25'1 1.0 1007.6 10.7
2016-May-28 23:00S 40°02' E 011°24'0 0.2 1007.8 10.8
2016-May-28 22:00S 40°02' E 011°24'2 0.8 1007.9 10.8
2016-May-28 20:00S 40°03' E 011°22'1 1.5 1008.0 10.9
2016-May-28 19:00S 40°02' E 011°20'2 0.8 1008.4 10.9
2016-May-28 17:00S 40°02' E 011°18'1 0.5 1008.1 11.0
2016-May-28 15:00S 40°01' E 011°17'1 1.3 1009.1 11.0
2016-May-28 14:00S 40°01' E 011°15'3 0.6 1009.4 11.0
2016-May-28 09:00S 39°58' E 011°13'0 0.0 1015.3 11.1
2016-May-28 08:00S 39°58' E 011°13'0 0.4 1015.2 11.1
2016-May-28 07:00S 39°58' E 011°14'2 0.4 1015.8 11.1
2016-May-28 03:00S 39°60' E 011°13'0 0.0 1017.5 10.9
2016-May-28 02:00S 39°60' E 011°13'1 1.1 1018.2 10.8
2016-May-28 01:00S 40°00' E 011°11'0 0.0 1018.7 10.8
2016-May-28 00:00S 40°00' E 011°11'1 0.7 1019.3 10.7
2016-May-27 22:00S 40°01' E 011°10'1 0.6 1019.8 10.7
2016-May-27 20:00S 40°00' E 011°08'2 0.4 1020.5 10.7
2016-May-27 16:00S 39°59' E 011°07'0 0.0 1019.9 10.9
2016-May-27 15:00S 39°59' E 011°07'3 0.4 1019.7 10.9
2016-May-27 06:00S 40°02' E 011°06'1 0.5 1018.7 10.8
2016-May-27 04:00S 40°03' E 011°05'1 0.6 1017.7 10.7
2016-May-27 03:00S 40°02' E 011°05'1 0.7 1017.8 10.7
2016-May-27 02:00S 40°03' E 011°04'0 0.2 1018.0 10.7
2016-May-27 01:00S 40°03' E 011°04'0 0.0 1017.7 10.7
2016-May-27 00:00S 40°03' E 011°04'1 0.7 1019.0 10.7
2016-May-26 23:00S 40°02' E 011°04'0 0.3 1018.8 10.7
2016-May-26 22:00S 40°03' E 011°04'0 0.1 1018.6 10.7
2016-May-26 21:00S 40°03' E 011°04'0 0.1 1018.9 10.7
2016-May-26 19:00S 40°03' E 011°04'1 0.3 1018.9 10.7
2016-May-26 17:00S 40°03' E 011°04'1 1.0 1018.7 10.7
2016-May-26 16:00S 40°04' E 011°03'0 0.0 1018.5 10.7
2016-May-26 14:00S 40°04' E 011°03'2 1.9 1017.8 10.6
2016-May-26 13:00S 40°06' E 011°03'2 0.4 1017.6 10.6
2016-May-26 07:00S 40°07' E 010°60'4 0.7 1016.3 11.6
2016-May-26 02:00S 40°09' E 010°57'2 1.6 1017.7 12.3
2016-May-26 01:00S 40°10' E 010°55'0 0.0 1018.0 12.3
2016-May-26 00:00S 40°10' E 010°55'3 1.3 1018.7 12.4
2016-May-25 22:00S 40°12' E 010°52'1 0.7 1019.7 12.6
2016-May-25 21:00S 40°12' E 010°51'2 1.5 1020.0 12.7
2016-May-25 20:00S 40°13' E 010°50'0 0.0 1020.3 13.0
2016-May-25 19:00S 40°13' E 010°50'3 1.3 1020.5 13.1
2016-May-25 17:00S 40°15' E 010°48'2 2.1 1020.1 13.6
2016-May-25 16:00S 40°17' E 010°48'1 0.7 1019.8 13.8
2016-May-25 15:00S 40°18' E 010°47'16 1.6 1019.8 13.9
2016-May-25 05:00S 40°31' E 010°37'0 0.3 1019.7 15.2
2016-May-25 04:00S 40°31' E 010°37'2 1.6 1019.7 15.3
2016-May-25 03:00S 40°33' E 010°36'0 0.0 1019.7 15.3
2016-May-25 02:00S 40°33' E 010°36'7 1.4 1020.0 15.4
2016-May-24 21:00S 40°39' E 010°32'2 2.2 1022.0 15.7
2016-May-24 20:00S 40°40' E 010°30'4 1.3 1022.1 15.8
2016-May-24 17:00S 40°43' E 010°26'1 1.2 1022.3 15.9
2016-May-24 16:00S 40°44' E 010°25'3 1.0 1022.4 15.9
2016-May-24 13:00S 40°45' E 010°21'2 0.6 1023.6 15.6
2016-May-24 09:00S 40°45' E 010°18'3 1.3 1026.0 15.2
2016-May-24 07:00S 40°47' E 010°16'0 0.4 1026.3 15.3
2016-May-24 06:00S 40°47' E 010°15'1 0.5 1026.3 15.3
2016-May-24 05:00S 40°48' E 010°15'1 0.6 1026.3 15.3
2016-May-24 04:00S 40°48' E 010°14'1 0.4 1026.1 15.3
2016-May-24 02:00S 40°49' E 010°14'1 1.1 1027.5 15.2
2016-May-24 01:00S 40°50' E 010°13'2 0.8 1026.8 15.3
2016-May-23 22:00S 40°52' E 010°11'1 0.6 1026.6 15.5
2016-May-23 20:00S 40°53' E 010°10'2 1.9 1025.8 15.6
2016-May-23 19:00S 40°54' E 010°08'0 0.3 1025.0 15.6
2016-May-23 18:00S 40°53' E 010°08'1 0.7 1024.4 15.7
2016-May-23 16:00S 40°54' E 010°06'1 0.8 1022.9 15.7
2016-May-23 15:00S 40°54' E 010°05'1 0.5 1021.5 15.8
2016-May-23 14:00S 40°54' E 010°05'0 0.0 1020.4 15.8
2016-May-23 13:00S 40°54' E 010°05'2 0.4 1019.6 15.8
2016-May-23 09:00S 40°55' E 010°04'0 0.0 1017.8 15.9
2016-May-23 08:00S 40°55' E 010°04'3 0.9 1016.4 15.9
2016-May-23 05:00S 40°58' E 010°03'1 0.9 1012.8 16.2
2016-May-23 04:00S 40°58' E 010°02'1 1.5 1012.1 16.2
2016-May-23 03:00S 40°59' E 010°00'0 0.1 1011.3 16.2
2016-May-23 02:00S 40°59' E 010°00'2 1.7 1011.5 16.3
2016-May-23 01:00S 40°59' E 009°58'2 0.8 1011.3 16.3
2016-May-22 22:00S 40°58' E 009°55'1 0.6 1011.1 16.3
2016-May-22 20:00S 40°58' E 009°54'3 0.6 1010.9 16.3
2016-May-22 15:00S 40°57' E 009°50'0 0.0 1008.8 16.4
2016-May-22 13:00S 40°57' E 009°50'5 0.9 1008.6 16.4
2016-May-22 07:00S 40°59' E 009°43'1 1.1 1012.5 14.8
2016-May-22 06:00S 40°58' E 009°43'2 0.8 1013.4 14.9
2016-May-22 04:00S 40°57' E 009°41'2 1.2 1014.9 15.8
2016-May-22 02:00S 40°56' E 009°38'0 0.0 1017.9 16.3
2016-May-22 01:00S 40°56' E 009°38'1 1.2 1019.5 16.4
2016-May-22 00:00S 40°56' E 009°36'1 0.4 1020.0 16.4
2016-May-21 21:00S 40°55' E 009°36'0 0.5 1022.9 16.3
2016-May-21 20:00S 40°55' E 009°36'0 0.1 1023.3 16.3
2016-May-21 17:00S 40°55' E 009°36'0 0.2 1023.8 16.3
2016-May-21 16:00S 40°55' E 009°36'0 0.2 1023.4 16.3
2016-May-21 13:00S 40°54' E 009°36'6 1.1 1023.5 16.6
2016-May-21 08:00S 40°50' E 009°32'1 1.2 1023.2 16.7
2016-May-21 07:00S 40°49' E 009°31'1 1.4 1022.4 16.7
2016-May-21 06:00S 40°48' E 009°30'2 0.9 1021.7 16.8
2016-May-21 04:00S 40°46' E 009°29'2 0.6 1019.8 16.8
2016-May-21 01:00S 40°44' E 009°30'2 1.2 1017.6 16.8
2016-May-20 23:00S 40°43' E 009°27'0 0.1 1015.5 16.8
2016-May-20 21:00S 40°43' E 009°27'7 1.7 1012.9 16.8
2016-May-20 17:00S 40°42' E 009°18'3 2.9 1010.8 16.7
2016-May-20 16:00S 40°40' E 009°15'0 0.0 1010.7 16.6
2016-May-20 15:00S 40°40' E 009°15'4 3.6 1011.3 16.6
2016-May-20 14:00S 40°39' E 009°11'11 2.2 1011.7 16.6
2016-May-20 09:00S 40°32' E 008°59'4 1.9 1017.1 17.1
2016-May-20 07:00S 40°30' E 008°55'2 1.8 1017.8 17.5
2016-May-20 06:00S 40°28' E 008°53'0 0.0 1018.2 17.5
2016-May-20 05:00S 40°28' E 008°53'1 0.8 1018.8 17.6
2016-May-20 04:00S 40°28' E 008°53'3 3.3 1019.3 17.6
2016-May-20 03:00S 40°26' E 008°49'   1020.1 17.6

Dump ship's entire track history